createdAt,value
2024-04-18T00:00:26.037Z,198.93
2024-04-18T00:01:26.040Z,198.68
2024-04-18T00:02:25.997Z,197.67
2024-04-18T00:03:26.078Z,198.48
2024-04-18T00:04:26.134Z,199.07
2024-04-18T00:05:26.160Z,199.26
2024-04-18T00:06:26.072Z,199.49
2024-04-18T00:07:25.973Z,198.73
2024-04-18T00:08:26.014Z,198.19
2024-04-18T00:09:26.043Z,198.94
2024-04-18T00:10:26.012Z,198.94
2024-04-18T00:11:26.031Z,197.89
2024-04-18T00:12:26.052Z,198.43
2024-04-18T00:13:26.029Z,198.41
2024-04-18T00:14:25.989Z,199.16
2024-04-18T00:15:26.108Z,197.92
2024-04-18T00:16:26.021Z,199.48
2024-04-18T00:17:26.138Z,198.79
2024-04-18T00:18:26.103Z,198.09
2024-04-18T00:19:26.024Z,198.05
2024-04-18T00:20:26.065Z,199.58
2024-04-18T00:21:26.021Z,199.16
2024-04-18T00:22:26.001Z,199.25
2024-04-18T00:23:26.005Z,199.05
2024-04-18T00:24:26.046Z,199.25
2024-04-18T00:25:26.014Z,199.00
2024-04-18T00:26:26.002Z,198.59
2024-04-18T00:27:26.014Z,199.30
2024-04-18T00:28:26.013Z,198.93
2024-04-18T00:29:26.102Z,199.84
2024-04-18T00:30:26.070Z,198.09
2024-04-18T00:31:26.000Z,197.93
2024-04-18T00:32:26.038Z,198.51
2024-04-18T00:33:26.030Z,199.61
2024-04-18T00:34:26.027Z,198.20
2024-04-18T00:35:26.038Z,198.68
2024-04-18T00:36:26.072Z,199.91
2024-04-18T00:37:26.036Z,199.36
2024-04-18T00:38:26.011Z,198.70
2024-04-18T00:39:26.065Z,198.14
2024-04-18T00:40:26.030Z,198.46
2024-04-18T00:41:26.059Z,198.04
2024-04-18T00:42:26.083Z,198.04
2024-04-18T00:43:26.084Z,198.92
2024-04-18T00:44:26.086Z,198.11
2024-04-18T00:45:26.130Z,196.93
2024-04-18T00:46:26.165Z,198.07
2024-04-18T00:47:26.168Z,198.87
2024-04-18T00:48:26.361Z,199.09
2024-04-18T00:49:26.228Z,198.88
2024-04-18T00:50:26.171Z,199.77
2024-04-18T00:51:26.223Z,199.75
2024-04-18T00:52:26.197Z,199.68
2024-04-18T00:53:26.228Z,200.00
2024-04-18T00:54:26.279Z,198.75
2024-04-18T00:55:26.263Z,198.99
2024-04-18T00:56:26.266Z,198.37
2024-04-18T00:57:26.320Z,198.60
2024-04-18T00:58:26.352Z,198.52
2024-04-18T00:59:26.318Z,199.20
2024-04-18T01:00:26.415Z,198.91
2024-04-18T01:01:26.405Z,198.34
2024-04-18T01:02:26.374Z,198.31
2024-04-18T01:03:26.465Z,199.04
2024-04-18T01:04:26.631Z,199.32
2024-04-18T01:05:26.499Z,198.52
2024-04-18T01:06:26.460Z,198.98
2024-04-18T01:07:26.466Z,199.00
2024-04-18T01:08:26.473Z,198.52
2024-04-18T01:09:26.499Z,199.70
2024-04-18T01:10:26.492Z,199.18
2024-04-18T01:11:26.565Z,199.36
2024-04-18T01:12:26.587Z,199.05
2024-04-18T01:13:26.547Z,198.98
2024-04-18T01:14:26.564Z,198.57
2024-04-18T01:15:26.584Z,199.66
2024-04-18T01:16:26.577Z,198.81
2024-04-18T01:17:26.723Z,199.62
2024-04-18T01:18:26.711Z,198.60
2024-04-18T01:19:26.594Z,198.49
2024-04-18T01:20:26.654Z,198.88
2024-04-18T01:21:26.659Z,198.77
2024-04-18T01:22:26.662Z,198.59
2024-04-18T01:23:26.666Z,198.96
2024-04-18T01:24:26.726Z,199.42
2024-04-18T01:25:26.731Z,199.12
2024-04-18T01:26:26.744Z,199.54
2024-04-18T01:27:26.784Z,198.69
2024-04-18T01:28:26.804Z,198.83
2024-04-18T01:29:26.866Z,199.35
2024-04-18T01:30:26.829Z,198.60
2024-04-18T01:31:26.824Z,199.64
2024-04-18T01:32:26.878Z,198.03
2024-04-18T01:33:27.059Z,199.70
2024-04-18T01:34:26.969Z,198.68
2024-04-18T01:35:26.899Z,197.38
2024-04-18T01:36:26.947Z,199.08
2024-04-18T01:37:26.931Z,199.45
2024-04-18T01:38:26.975Z,198.97
2024-04-18T01:39:27.056Z,198.81
2024-04-18T01:40:27.005Z,198.66
2024-04-18T01:41:27.168Z,199.00
2024-04-18T01:42:27.065Z,199.52
2024-04-18T01:43:27.061Z,197.55
2024-04-18T01:44:27.133Z,198.35
2024-04-18T01:45:27.254Z,199.50
2024-04-18T01:46:27.207Z,197.98
2024-04-18T01:47:27.246Z,198.88
2024-04-18T01:48:27.311Z,199.45
2024-04-18T01:49:27.174Z,198.71
2024-04-18T01:50:27.267Z,199.16
2024-04-18T01:51:27.261Z,199.43
2024-04-18T01:52:27.218Z,198.51
2024-04-18T01:53:27.269Z,197.91
2024-04-18T01:54:27.382Z,197.82
2024-04-18T01:55:27.306Z,198.07
2024-04-18T01:56:27.281Z,197.71
2024-04-18T01:57:27.380Z,198.30
2024-04-18T01:58:27.437Z,199.12
2024-04-18T01:59:27.376Z,199.81
2024-04-18T02:00:27.383Z,198.81
2024-04-18T02:01:27.451Z,198.22
2024-04-18T02:02:27.462Z,198.48
2024-04-18T02:03:27.492Z,199.00
2024-04-18T02:04:27.496Z,197.90
2024-04-18T02:05:27.442Z,198.50
2024-04-18T02:06:27.554Z,198.78
2024-04-18T02:07:27.505Z,198.42
2024-04-18T02:08:27.524Z,197.90
2024-04-18T02:09:27.541Z,197.92
2024-04-18T02:10:27.573Z,198.86
2024-04-18T02:11:27.611Z,199.04
2024-04-18T02:12:27.615Z,198.84
2024-04-18T02:13:27.610Z,198.63
2024-04-18T02:14:27.659Z,198.37
2024-04-18T02:15:27.770Z,197.86
2024-04-18T02:16:27.639Z,198.83
2024-04-18T02:17:27.728Z,198.05
2024-04-18T02:18:27.810Z,198.50
2024-04-18T02:19:27.729Z,198.72
2024-04-18T02:20:27.720Z,198.75
2024-04-18T02:21:27.814Z,199.45
2024-04-18T02:22:27.843Z,198.90
2024-04-18T02:23:27.840Z,198.54
2024-04-18T02:24:27.847Z,198.58
2024-04-18T02:25:27.839Z,198.55
2024-04-18T02:26:27.821Z,199.42
2024-04-18T02:27:27.899Z,199.37
2024-04-18T02:28:27.866Z,198.71
2024-04-18T02:29:27.870Z,199.26
2024-04-18T02:30:28.035Z,198.54
2024-04-18T02:31:27.925Z,198.87
2024-04-18T02:32:27.988Z,198.39
2024-04-18T02:33:28.031Z,198.91
2024-04-18T02:34:27.953Z,198.27
2024-04-18T02:35:28.006Z,199.52
2024-04-18T02:36:27.988Z,198.04
2024-04-18T02:37:27.963Z,199.20
2024-04-18T02:38:27.977Z,198.11
2024-04-18T02:39:28.064Z,198.36
2024-04-18T02:40:28.091Z,198.62
2024-04-18T02:41:28.111Z,198.66
2024-04-18T02:42:28.126Z,199.16
2024-04-18T02:43:28.084Z,198.35
2024-04-18T02:44:28.115Z,199.09
2024-04-18T02:45:28.115Z,199.37
2024-04-18T02:46:28.119Z,198.52
2024-04-18T02:47:28.226Z,198.61
2024-04-18T02:48:28.191Z,197.49
2024-04-18T02:49:28.169Z,198.07
2024-04-18T02:50:28.209Z,199.47
2024-04-18T02:51:28.223Z,198.38
2024-04-18T02:52:28.315Z,199.24
2024-04-18T02:53:28.304Z,198.62
2024-04-18T02:54:28.302Z,198.79
2024-04-18T02:55:28.270Z,200.00
2024-04-18T02:56:28.297Z,198.75
2024-04-18T02:57:28.311Z,198.95
2024-04-18T02:58:28.328Z,199.57
2024-04-18T02:59:28.337Z,198.05
2024-04-18T03:00:28.483Z,198.83
2024-04-18T03:01:28.454Z,198.80
2024-04-18T03:02:28.525Z,198.29
2024-04-18T03:03:28.436Z,198.91
2024-04-18T03:04:28.533Z,199.55
2024-04-18T03:05:28.480Z,198.85
2024-04-18T03:06:28.582Z,198.26
2024-04-18T03:07:28.496Z,198.76
2024-04-18T03:08:28.508Z,197.39
2024-04-18T03:09:28.578Z,199.82
2024-04-18T03:10:28.583Z,198.66
2024-04-18T03:11:28.622Z,198.92
2024-04-18T03:12:28.679Z,199.17
2024-04-18T03:13:28.623Z,199.09
2024-04-18T03:14:28.631Z,199.44
2024-04-18T03:15:28.721Z,199.41
2024-04-18T03:16:28.673Z,197.79
2024-04-18T03:17:28.837Z,198.21
2024-04-18T03:18:28.835Z,198.14
2024-04-18T03:19:28.787Z,198.70
2024-04-18T03:20:28.799Z,197.94
2024-04-18T03:21:28.852Z,198.71
2024-04-18T03:22:28.810Z,198.86
2024-04-18T03:23:28.878Z,197.53
2024-04-18T03:24:28.873Z,198.20
2024-04-18T03:25:28.821Z,199.21
2024-04-18T03:26:28.932Z,198.58
2024-04-18T03:27:28.928Z,199.70
2024-04-18T03:28:28.905Z,199.95
2024-04-18T03:29:28.906Z,198.71
2024-04-18T03:30:28.977Z,199.50
2024-04-18T03:31:28.958Z,198.12
2024-04-18T03:32:29.141Z,198.47
2024-04-18T03:33:28.989Z,197.84
2024-04-18T03:34:29.037Z,197.93
2024-04-18T03:35:29.048Z,198.59
2024-04-18T03:36:29.102Z,198.20
2024-04-18T03:37:29.113Z,200.00
2024-04-18T03:38:29.113Z,197.55
2024-04-18T03:39:29.217Z,197.64
2024-04-18T03:40:29.151Z,197.77
2024-04-18T03:41:29.208Z,197.98
2024-04-18T03:42:29.280Z,196.97
2024-04-18T03:43:29.244Z,198.45
2024-04-18T03:44:29.222Z,198.90
2024-04-18T03:45:29.321Z,197.32
2024-04-18T03:46:29.269Z,198.23
2024-04-18T03:47:29.432Z,198.36
2024-04-18T03:48:29.387Z,199.33
2024-04-18T03:49:29.359Z,198.08
2024-04-18T03:50:29.363Z,197.75
2024-04-18T03:51:29.472Z,198.09
2024-04-18T03:52:29.402Z,197.83
2024-04-18T03:53:29.415Z,199.19
2024-04-18T03:54:29.454Z,196.62
2024-04-18T03:55:29.502Z,198.52
2024-04-18T03:56:29.499Z,199.20
2024-04-18T03:57:29.569Z,199.31
2024-04-18T03:58:29.510Z,199.19
2024-04-18T03:59:29.535Z,198.25
2024-04-18T04:00:29.621Z,199.09
2024-04-18T04:01:29.792Z,198.93
2024-04-18T04:02:29.705Z,200.00
2024-04-18T04:03:29.740Z,198.71
2024-04-18T04:04:29.710Z,197.60
2024-04-18T04:05:29.728Z,196.20
2024-04-18T04:06:30.707Z,193.59
2024-04-18T04:07:29.717Z,193.64
2024-04-18T04:08:29.742Z,191.11
2024-04-18T04:09:29.828Z,190.48
2024-04-18T04:10:29.809Z,189.55
2024-04-18T04:11:29.850Z,187.12
2024-04-18T04:12:29.871Z,184.71
2024-04-18T04:13:29.849Z,182.65
2024-04-18T04:14:29.932Z,180.19
2024-04-18T04:15:29.952Z,179.01
2024-04-18T04:16:29.974Z,176.91
2024-04-18T04:17:30.098Z,175.15
2024-04-18T04:18:30.198Z,172.78
2024-04-18T04:19:30.289Z,171.32
2024-04-18T04:20:30.133Z,169.33
2024-04-18T04:21:30.197Z,167.05
2024-04-18T04:22:33.021Z,164.97
2024-04-18T04:23:30.246Z,164.12
2024-04-18T04:24:30.261Z,161.30
2024-04-18T04:25:37.538Z,50.00
2024-04-18T04:26:37.437Z,50.00
2024-04-18T04:27:37.442Z,50.00
2024-04-18T04:28:37.457Z,50.00
2024-04-18T04:29:37.466Z,50.00
2024-04-18T04:30:37.488Z,51.43
2024-04-18T04:31:44.987Z,50.00
2024-04-18T04:32:44.965Z,50.00
2024-04-18T04:33:44.989Z,50.00
2024-04-18T04:34:45.016Z,50.00
2024-04-18T04:35:45.038Z,50.00
2024-04-18T04:36:45.100Z,50.00
2024-04-18T04:37:45.091Z,52.88
2024-04-18T04:38:45.126Z,52.04
2024-04-18T04:39:45.120Z,51.05
2024-04-18T04:40:45.106Z,51.71
2024-04-18T04:41:45.113Z,53.06
2024-04-18T04:42:45.187Z,51.65
2024-04-18T04:43:45.196Z,52.13
2024-04-18T04:44:45.243Z,50.78
2024-04-18T04:45:45.246Z,51.48
2024-04-18T04:46:45.239Z,52.18
2024-04-18T04:47:45.286Z,52.86
2024-04-18T04:48:45.401Z,52.46
2024-04-18T04:49:45.306Z,52.06
2024-04-18T04:50:45.445Z,52.64
2024-04-18T04:51:45.377Z,52.35
2024-04-18T04:52:45.440Z,53.80
2024-04-18T04:53:45.373Z,54.44
2024-04-18T04:54:45.731Z,54.94
2024-04-18T04:55:45.377Z,54.84
2024-04-18T04:56:45.433Z,55.64
2024-04-18T04:57:45.419Z,53.40
2024-04-18T04:58:45.465Z,56.40
2024-04-18T04:59:45.504Z,55.55
2024-04-18T05:00:45.487Z,55.00
2024-04-18T05:01:45.508Z,55.65
2024-04-18T05:02:48.073Z,56.33
2024-04-18T05:03:45.581Z,55.94
2024-04-18T05:04:45.526Z,58.02
2024-04-18T05:05:45.553Z,59.40
2024-04-18T05:06:45.516Z,57.50
2024-04-18T05:07:45.514Z,56.58
2024-04-18T05:08:45.552Z,58.32
2024-04-18T05:09:45.591Z,56.65
2024-04-18T05:10:45.564Z,58.99
2024-04-18T05:11:45.516Z,58.40
2024-04-18T05:12:45.656Z,60.40
2024-04-18T05:13:45.536Z,56.59
2024-04-18T05:14:45.535Z,59.65
2024-04-18T05:15:45.615Z,60.08
2024-04-18T05:16:45.637Z,59.33
2024-04-18T05:17:45.535Z,60.96
2024-04-18T05:18:45.640Z,59.58
2024-04-18T05:19:45.520Z,59.58
2024-04-18T05:20:45.530Z,59.20
2024-04-18T05:21:45.587Z,59.07
2024-04-18T05:22:45.537Z,61.26
2024-04-18T05:23:45.532Z,60.52
2024-04-18T05:24:45.594Z,62.81
2024-04-18T05:25:45.576Z,61.51
2024-04-18T05:26:45.617Z,61.61
2024-04-18T05:27:45.620Z,61.05
2024-04-18T05:28:45.598Z,61.65
2024-04-18T05:29:45.566Z,62.34
2024-04-18T05:30:45.584Z,61.60
2024-04-18T05:31:45.557Z,62.12
2024-04-18T05:32:45.694Z,62.32
2024-04-18T05:33:45.646Z,61.31
2024-04-18T05:34:45.571Z,61.81
2024-04-18T05:35:45.568Z,61.79
2024-04-18T05:36:45.637Z,58.75
2024-04-18T05:37:45.547Z,59.06
2024-04-18T05:38:45.559Z,57.41
2024-04-18T05:39:45.609Z,54.08
2024-04-18T05:40:45.579Z,56.19
2024-04-18T05:41:45.587Z,56.69
2024-04-18T05:42:45.620Z,54.69
2024-04-18T05:43:45.618Z,53.26
2024-04-18T05:44:45.547Z,51.37
2024-04-18T05:45:45.629Z,50.00
2024-04-18T05:46:45.702Z,52.34
2024-04-18T05:47:45.603Z,50.00
2024-04-18T05:48:45.705Z,51.55
2024-04-18T05:49:45.567Z,50.31
2024-04-18T05:50:45.576Z,51.45
2024-04-18T05:51:45.633Z,50.84
2024-04-18T05:52:45.587Z,50.22
2024-04-18T05:53:45.660Z,52.02
2024-04-18T05:54:45.644Z,51.59
2024-04-18T05:55:45.588Z,52.57
2024-04-18T05:56:45.612Z,51.66
2024-04-18T05:57:45.670Z,54.83
2024-04-18T05:58:45.694Z,54.92
2024-04-18T05:59:45.588Z,56.48
2024-04-18T06:00:45.677Z,60.99
2024-04-18T06:01:45.644Z,62.89
2024-04-18T06:02:45.866Z,65.54
2024-04-18T06:03:45.705Z,67.68
2024-04-18T06:04:45.660Z,71.01
2024-04-18T06:05:45.588Z,71.07
2024-04-18T06:06:46.024Z,72.92
2024-04-18T06:07:46.632Z,76.64
2024-04-18T06:08:45.624Z,76.81
2024-04-18T06:09:45.641Z,80.16
2024-04-18T06:10:45.674Z,82.71
2024-04-18T06:11:45.681Z,84.41
2024-04-18T06:12:45.692Z,87.90
2024-04-18T06:13:45.689Z,92.44
2024-04-18T06:14:45.745Z,97.33
2024-04-18T06:15:45.828Z,97.75
2024-04-18T06:16:45.879Z,101.05
2024-04-18T06:17:45.932Z,104.33
2024-04-18T06:18:48.869Z,107.04
2024-04-18T06:19:45.965Z,110.63
2024-04-18T06:20:45.946Z,111.79
2024-04-18T06:21:46.557Z,115.14
2024-04-18T06:22:45.947Z,116.60
2024-04-18T06:23:46.008Z,117.34
2024-04-18T06:24:48.363Z,117.19
2024-04-18T06:25:45.986Z,117.31
2024-04-18T06:26:45.979Z,117.71
2024-04-18T06:27:45.974Z,119.22
2024-04-18T06:28:45.971Z,120.60
2024-04-18T06:29:46.039Z,125.08
2024-04-18T06:30:45.996Z,127.31
2024-04-18T06:31:46.166Z,127.95
2024-04-18T06:32:47.601Z,129.03
2024-04-18T06:33:47.068Z,131.32
2024-04-18T06:34:46.193Z,132.23
2024-04-18T06:35:46.043Z,132.92
2024-04-18T06:36:46.048Z,134.19
2024-04-18T06:37:45.946Z,133.65
2024-04-18T06:38:45.959Z,134.94
2024-04-18T06:39:46.056Z,135.45
2024-04-18T06:40:46.350Z,136.90
2024-04-18T06:41:45.983Z,138.28
2024-04-18T06:42:46.033Z,139.89
2024-04-18T06:43:45.998Z,141.16
2024-04-18T06:44:46.036Z,141.64
2024-04-18T06:45:46.040Z,143.67
2024-04-18T06:46:53.047Z,147.01
2024-04-18T06:47:47.718Z,147.14
2024-04-18T06:48:46.014Z,147.82
2024-04-18T06:49:46.033Z,149.40
2024-04-18T06:50:46.010Z,152.70
2024-04-18T06:51:46.012Z,158.35
2024-04-18T06:52:45.977Z,160.29
2024-04-18T06:53:46.043Z,161.34
2024-04-18T06:54:46.046Z,162.44
2024-04-18T06:55:46.053Z,163.39
2024-04-18T06:56:46.118Z,163.50
2024-04-18T06:57:46.027Z,165.98
2024-04-18T06:58:45.989Z,166.85
2024-04-18T06:59:46.000Z,167.64
2024-04-18T07:00:46.103Z,168.25
2024-04-18T07:01:46.154Z,169.19
2024-04-18T07:02:46.122Z,168.02
2024-04-18T07:03:46.221Z,167.31
2024-04-18T07:04:46.343Z,166.82
2024-04-18T07:05:46.003Z,166.98
2024-04-18T07:06:46.665Z,166.81
2024-04-18T07:07:46.153Z,166.90
2024-04-18T07:08:46.120Z,166.86
2024-04-18T07:09:49.054Z,165.87
2024-04-18T07:10:46.171Z,165.41
2024-04-18T07:11:46.154Z,165.36
2024-04-18T07:12:46.182Z,163.71
2024-04-18T07:13:46.146Z,162.10
2024-04-18T07:14:46.127Z,163.23
2024-04-18T07:15:46.208Z,162.74
2024-04-18T07:16:46.175Z,161.97
2024-04-18T07:17:46.238Z,160.17
2024-04-18T07:18:46.215Z,159.49
2024-04-18T07:19:46.137Z,159.14
2024-04-18T07:20:46.154Z,157.62
2024-04-18T07:21:46.193Z,159.30
2024-04-18T07:22:46.186Z,157.66
2024-04-18T07:23:46.166Z,159.24
2024-04-18T07:24:46.287Z,156.89
2024-04-18T07:25:46.140Z,155.12
2024-04-18T07:26:46.163Z,157.68
2024-04-18T07:27:46.237Z,154.29
2024-04-18T07:28:46.216Z,156.59
2024-04-18T07:29:46.236Z,155.01
2024-04-18T07:30:46.205Z,153.96
2024-04-18T07:31:46.176Z,153.96
2024-04-18T07:32:46.252Z,154.68
2024-04-18T07:33:46.274Z,152.97
2024-04-18T07:34:46.194Z,150.09
2024-04-18T07:35:46.179Z,144.66
2024-04-18T07:36:46.307Z,142.09
2024-04-18T07:37:47.671Z,138.04
2024-04-18T07:38:46.198Z,134.77
2024-04-18T07:39:46.219Z,131.43
2024-04-18T07:40:46.199Z,127.32
2024-04-18T07:41:46.184Z,124.30
2024-04-18T07:42:46.256Z,123.77
2024-04-18T07:43:46.203Z,120.07
2024-04-18T07:44:46.166Z,117.79
2024-04-18T07:45:46.199Z,117.10
2024-04-18T07:46:46.175Z,112.88
2024-04-18T07:47:46.309Z,110.73
2024-04-18T07:48:46.301Z,107.54
2024-04-18T07:49:49.027Z,103.30
2024-04-18T07:50:46.183Z,100.22
2024-04-18T07:51:46.568Z,99.23
2024-04-18T07:52:53.040Z,97.94
2024-04-18T07:53:47.257Z,95.21
2024-04-18T07:54:46.293Z,91.17
2024-04-18T07:55:46.193Z,86.12
2024-04-18T07:56:46.658Z,86.39
2024-04-18T07:57:46.807Z,84.77
2024-04-18T07:58:46.573Z,84.04
2024-04-18T07:59:47.027Z,80.92
2024-04-18T08:00:47.521Z,78.22
2024-04-18T08:01:47.435Z,78.41
2024-04-18T08:02:48.051Z,74.55
2024-04-18T08:03:56.659Z,73.84
2024-04-18T08:04:55.177Z,73.88
2024-04-18T08:05:50.098Z,73.89
2024-04-18T08:06:49.134Z,73.90
2024-04-18T08:07:49.218Z,73.86
2024-04-18T08:08:49.252Z,73.91
2024-04-18T08:09:48.600Z,74.03
2024-04-18T08:11:06.787Z,73.93
2024-04-18T08:12:50.792Z,73.95
2024-04-18T08:13:50.311Z,74.12
2024-04-18T08:14:50.805Z,74.18
2024-04-18T08:16:46.311Z,74.19
2024-04-18T08:17:46.453Z,75.68
2024-04-18T08:18:46.410Z,76.12
2024-04-18T08:19:46.278Z,77.06
2024-04-18T08:20:46.302Z,76.99
2024-04-18T08:21:46.311Z,75.96
2024-04-18T08:22:46.267Z,77.49
2024-04-18T08:23:46.288Z,75.12
2024-04-18T08:24:46.275Z,76.32
2024-04-18T08:25:46.286Z,71.94
2024-04-18T08:26:46.431Z,74.92
2024-04-18T08:27:46.458Z,60.37
2024-04-18T08:28:46.362Z,49.02
2024-04-18T08:29:46.324Z,50.00
2024-04-18T08:30:46.381Z,50.00
2024-04-18T08:31:46.500Z,47.49
2024-04-18T08:32:46.406Z,40.36
2024-04-18T08:33:54.190Z,40.37
2024-04-18T08:34:48.573Z,15.41
2024-04-18T08:35:46.305Z,0.00
2024-04-18T08:36:46.300Z,0.00
2024-04-18T08:37:46.414Z,0.00
2024-04-18T08:38:46.270Z,0.00
2024-04-18T08:39:46.270Z,0.00
2024-04-18T08:40:46.348Z,0.00
2024-04-18T08:41:47.378Z,0.00
2024-04-18T08:42:46.320Z,0.00
2024-04-18T08:43:49.133Z,0.00
2024-04-18T08:44:47.376Z,0.00
2024-04-18T08:45:46.323Z,0.00
2024-04-18T08:46:46.320Z,0.00
2024-04-18T08:47:46.453Z,0.00
2024-04-18T08:48:46.492Z,0.00
2024-04-18T08:49:46.389Z,0.00
2024-04-18T08:50:46.327Z,13.33
2024-04-18T08:51:46.401Z,46.00
2024-04-18T08:52:46.360Z,55.13
2024-04-18T08:53:46.334Z,64.16
2024-04-18T08:54:46.354Z,68.71
2024-04-18T08:55:46.344Z,75.19
2024-04-18T08:56:46.400Z,82.43
2024-04-18T08:57:46.474Z,91.39
2024-04-18T08:58:46.309Z,93.53
2024-04-18T08:59:46.384Z,103.75
2024-04-18T09:00:46.482Z,104.03
2024-04-18T09:01:46.430Z,110.67
2024-04-18T09:02:46.487Z,116.72
2024-04-18T09:03:47.062Z,117.07
2024-04-18T09:04:46.530Z,122.93
2024-04-18T09:05:46.607Z,128.18
2024-04-18T09:06:46.676Z,129.93
2024-04-18T09:07:46.731Z,134.12
2024-04-18T09:08:46.783Z,137.96
2024-04-18T09:09:46.795Z,145.56
2024-04-18T09:10:46.826Z,152.34
2024-04-18T09:11:46.914Z,156.47
2024-04-18T09:12:46.917Z,161.23
2024-04-18T09:13:48.961Z,166.18
2024-04-18T09:14:46.985Z,169.47
2024-04-18T09:15:47.032Z,174.82
2024-04-18T09:16:47.084Z,179.46
2024-04-18T09:17:47.157Z,186.88
2024-04-18T09:18:47.228Z,189.39
2024-04-18T09:19:47.175Z,193.39
2024-04-18T09:20:47.123Z,198.20
2024-04-18T09:21:47.118Z,199.77
2024-04-18T09:22:47.134Z,200.00
2024-04-18T09:23:47.125Z,199.57
2024-04-18T09:24:47.204Z,199.79
2024-04-18T09:25:47.163Z,199.58
2024-04-18T09:26:47.169Z,200.00
2024-04-18T09:27:47.222Z,200.00
2024-04-18T09:28:47.232Z,199.89
2024-04-18T09:29:47.336Z,199.77
2024-04-18T09:30:47.387Z,199.91
2024-04-18T09:31:47.464Z,199.74
2024-04-18T09:32:47.570Z,199.61
2024-04-18T09:33:47.618Z,199.27
2024-04-18T09:34:47.618Z,199.41
2024-04-18T09:35:47.729Z,200.00
2024-04-18T09:36:47.962Z,195.90
2024-04-18T09:37:53.432Z,195.17
2024-04-18T09:38:48.888Z,194.27
2024-04-18T09:39:47.867Z,191.16
2024-04-18T09:40:47.868Z,186.70
2024-04-18T09:41:47.833Z,185.39
2024-04-18T09:42:47.839Z,183.67
2024-04-18T09:43:47.878Z,185.47
2024-04-18T09:44:47.851Z,187.01
2024-04-18T09:45:47.861Z,183.04
2024-04-18T09:46:47.976Z,182.05
2024-04-18T09:47:48.152Z,184.95
2024-04-18T09:48:48.228Z,186.57
2024-04-18T09:49:49.731Z,187.04
2024-04-18T09:50:48.126Z,184.62
2024-04-18T09:51:48.053Z,180.27
2024-04-18T09:52:48.205Z,176.66
2024-04-18T09:53:48.062Z,173.84
2024-04-18T09:54:48.080Z,169.23
2024-04-18T09:55:48.073Z,168.86
2024-04-18T09:56:48.079Z,168.88
2024-04-18T09:57:48.052Z,166.90
2024-04-18T09:58:48.039Z,166.45
2024-04-18T09:59:48.059Z,166.76
2024-04-18T10:00:48.071Z,170.39
2024-04-18T10:01:48.097Z,172.29
2024-04-18T10:02:48.540Z,170.70
2024-04-18T10:03:48.125Z,174.16
2024-04-18T10:04:48.151Z,176.44
2024-04-18T10:05:48.099Z,177.75
2024-04-18T10:06:48.190Z,179.04
2024-04-18T10:07:48.067Z,180.87
2024-04-18T10:08:48.167Z,182.98
2024-04-18T10:09:48.117Z,186.94
2024-04-18T10:10:48.620Z,188.45
2024-04-18T10:11:49.620Z,190.80
2024-04-18T10:12:48.964Z,192.10
2024-04-18T10:13:48.201Z,192.96
2024-04-18T10:14:48.122Z,195.32
2024-04-18T10:15:48.118Z,196.42
2024-04-18T10:16:48.118Z,199.73
2024-04-18T10:17:48.235Z,198.99
2024-04-18T10:18:51.509Z,199.59
2024-04-18T10:19:49.965Z,199.80
2024-04-18T10:20:48.104Z,201.00
2024-04-18T10:21:56.072Z,202.36
2024-04-18T10:22:49.156Z,199.96
2024-04-18T10:23:48.462Z,201.37
2024-04-18T10:24:48.676Z,203.65
2024-04-18T10:25:48.145Z,208.44
2024-04-18T10:26:48.127Z,212.92
2024-04-18T10:27:48.155Z,200.29
2024-04-18T10:28:48.102Z,198.02
2024-04-18T10:29:48.138Z,190.78
2024-04-18T10:30:48.182Z,178.76
2024-04-18T10:31:48.206Z,169.95
2024-04-18T10:32:48.393Z,164.87
2024-04-18T10:33:49.109Z,161.14
2024-04-18T10:34:48.239Z,158.58
2024-04-18T10:35:48.320Z,157.46
2024-04-18T10:36:48.319Z,158.65
2024-04-18T10:37:48.329Z,159.12
2024-04-18T10:38:48.317Z,159.66
2024-04-18T10:39:48.394Z,159.88
2024-04-18T10:40:48.387Z,159.26
2024-04-18T10:41:48.393Z,159.51
2024-04-18T10:42:48.409Z,159.99
2024-04-18T10:43:48.487Z,160.77
2024-04-18T10:44:48.545Z,161.86
2024-04-18T10:45:48.540Z,162.21
2024-04-18T10:46:48.484Z,165.32
2024-04-18T10:47:48.527Z,166.14
2024-04-18T10:48:48.520Z,165.76
2024-04-18T10:49:48.566Z,167.42
2024-04-18T10:50:48.656Z,168.30
2024-04-18T10:51:48.714Z,167.60
2024-04-18T10:52:49.016Z,168.95
2024-04-18T10:53:48.795Z,169.23
2024-04-18T10:54:48.782Z,171.29
2024-04-18T10:55:48.842Z,172.45
2024-04-18T10:56:48.903Z,173.91
2024-04-18T10:57:49.029Z,175.26
2024-04-18T10:58:49.134Z,174.61
2024-04-18T10:59:49.300Z,176.23
2024-04-18T11:00:49.324Z,178.57
2024-04-18T11:01:49.212Z,182.29
2024-04-18T11:02:49.283Z,185.00
2024-04-18T11:03:49.463Z,187.52
2024-04-18T11:04:49.399Z,188.71
2024-04-18T11:05:49.476Z,189.64
2024-04-18T11:06:49.597Z,191.11
2024-04-18T11:07:49.637Z,192.52
2024-04-18T11:08:49.858Z,191.97
2024-04-18T11:09:49.772Z,193.66
2024-04-18T11:10:49.875Z,195.17
2024-04-18T11:11:49.903Z,195.83
2024-04-18T11:12:50.887Z,195.91
2024-04-18T11:13:50.625Z,195.03
2024-04-18T11:14:50.036Z,196.43
2024-04-18T11:15:50.138Z,197.71
2024-04-18T11:16:50.161Z,199.32
2024-04-18T11:17:50.285Z,197.47
2024-04-18T11:18:50.446Z,199.19
2024-04-18T11:19:50.410Z,199.26
2024-04-18T11:20:50.389Z,200.00
2024-04-18T11:21:50.463Z,199.75
2024-04-18T11:22:57.238Z,199.04
2024-04-18T11:23:51.860Z,199.11
2024-04-18T11:24:50.507Z,199.49
2024-04-18T11:25:50.502Z,200.99
2024-04-18T11:26:50.532Z,202.23
2024-04-18T11:27:50.612Z,205.80
2024-04-18T11:28:50.513Z,198.05
2024-04-18T11:29:50.534Z,197.85
2024-04-18T11:30:50.549Z,195.80
2024-04-18T11:31:50.576Z,194.07
2024-04-18T11:32:50.630Z,192.05
2024-04-18T11:33:50.590Z,190.69
2024-04-18T11:34:56.870Z,188.98
2024-04-18T11:35:51.553Z,187.89
2024-04-18T11:36:50.525Z,184.69
2024-04-18T11:37:50.537Z,181.14
2024-04-18T11:38:50.618Z,179.14
2024-04-18T11:39:50.598Z,176.75
2024-04-18T11:40:50.546Z,172.70
2024-04-18T11:41:50.506Z,169.64
2024-04-18T11:42:50.568Z,166.98
2024-04-18T11:43:50.532Z,161.61
2024-04-18T11:44:50.581Z,158.39
2024-04-18T11:45:50.529Z,153.85
2024-04-18T11:46:50.590Z,153.57
2024-04-18T11:47:50.652Z,148.38
2024-04-18T11:48:50.764Z,147.54
2024-04-18T11:49:50.536Z,146.34
2024-04-18T11:50:50.528Z,142.62
2024-04-18T11:51:50.595Z,138.88
2024-04-18T11:52:50.612Z,138.28
2024-04-18T11:53:50.561Z,136.72
2024-04-18T11:54:50.589Z,135.28
2024-04-18T11:55:50.565Z,134.57
2024-04-18T11:56:50.650Z,134.71
2024-04-18T11:57:50.652Z,134.34
2024-04-18T11:58:50.772Z,133.50
2024-04-18T11:59:50.658Z,133.36
2024-04-18T12:00:50.680Z,134.80
2024-04-18T12:01:50.692Z,134.27
2024-04-18T12:02:50.813Z,136.12
2024-04-18T12:03:50.826Z,134.91
2024-04-18T12:04:50.800Z,133.16
2024-04-18T12:05:50.727Z,134.03
2024-04-18T12:06:50.747Z,134.85
2024-04-18T12:07:50.761Z,135.07
2024-04-18T12:08:54.070Z,134.80
2024-04-18T12:09:50.776Z,134.86
2024-04-18T12:10:50.816Z,135.25
2024-04-18T12:11:50.771Z,135.46
2024-04-18T12:12:50.743Z,135.62
2024-04-18T12:13:50.748Z,135.64
2024-04-18T12:14:50.800Z,136.87
2024-04-18T12:15:50.924Z,136.61
2024-04-18T12:16:50.825Z,135.78
2024-04-18T12:17:51.098Z,136.91
2024-04-18T12:18:50.829Z,136.65
2024-04-18T12:19:50.774Z,138.11
2024-04-18T12:20:50.771Z,137.63
2024-04-18T12:21:50.795Z,138.56
2024-04-18T12:22:50.810Z,140.85
2024-04-18T12:23:50.810Z,138.33
2024-04-18T12:24:50.771Z,139.71
2024-04-18T12:25:50.777Z,140.50
2024-04-18T12:26:50.779Z,139.00
2024-04-18T12:27:51.015Z,138.74
2024-04-18T12:28:50.802Z,138.60
2024-04-18T12:29:50.784Z,139.52
2024-04-18T12:30:50.853Z,139.08
2024-04-18T12:31:50.790Z,140.30
2024-04-18T12:32:50.994Z,139.88
2024-04-18T12:33:50.886Z,139.64
2024-04-18T12:34:50.854Z,140.56
2024-04-18T12:35:50.806Z,138.49
2024-04-18T12:36:50.843Z,138.83